sensor_id;sensor_type;location;lat;lon;timestamp;pressure;altitude;pressure_sealevel;temperature;humidity
4113;BME280;2070;51.042;7.056;2022-10-13T00:02:23;65337.41;;;-146.17;100.00
4113;BME280;2070;51.042;7.056;2022-10-13T00:04:48;65431.31;;;-146.17;100.00
4113;BME280;2070;51.042;7.056;2022-10-13T00:07:13;65450.47;;;-146.17;100.00
4113;BME280;2070;51.042;7.056;2022-10-13T00:09:39;65387.22;;;-146.17;100.00
4113;BME280;2070;51.042;7.056;2022-10-13T00:12:04;65684.22;;;-146.17;100.00
4113;BME280;2070;51.042;7.056;2022-10-13T00:14:29;65663.16;;;-146.17;100.00
4113;BME280;2070;51.042;7.056;2022-10-13T00:16:55;65634.41;;;-146.17;100.00
4113;BME280;2070;51.042;7.056;2022-10-13T00:19:20;65659.31;;;-146.17;100.00
4113;BME280;2070;51.042;7.056;2022-10-13T00:21:46;65555.84;;;-146.17;100.00
4113;BME280;2070;51.042;7.056;2022-10-13T00:24:11;65299.09;;;-146.17;100.00
4113;BME280;2070;51.042;7.056;2022-10-13T00:26:36;65299.09;;;-146.17;100.00
4113;BME280;2070;51.042;7.056;2022-10-13T00:29:02;65440.88;;;-146.17;100.00
4113;BME280;2070;51.042;7.056;2022-10-13T00:31:29;65264.59;;;-146.17;100.00
4113;BME280;2070;51.042;7.056;2022-10-13T00:33:57;64963.81;;;-146.17;100.00
4113;BME280;2070;51.042;7.056;2022-10-13T00:36:23;64868.00;;;-146.17;100.00
4113;BME280;2070;51.042;7.056;2022-10-13T00:38:49;64852.69;;;-146.17;100.00
4113;BME280;2070;51.042;7.056;2022-10-13T00:41:15;64588.31;;;-146.17;100.00
4113;BME280;2070;51.042;7.056;2022-10-13T00:46:53;63632.56;;;-146.17;100.00
4113;BME280;2070;51.042;7.056;2022-10-13T00:49:18;63829.81;;;-146.17;100.00
4113;BME280;2070;51.042;7.056;2022-10-13T00:51:46;63678.53;;;-146.17;100.00
4113;BME280;2070;51.042;7.056;2022-10-13T00:54:15;63427.66;;;-146.17;100.00
4113;BME280;2070;51.042;7.056;2022-10-13T00:56:42;63060.00;;;-146.17;100.00
4113;BME280;2070;51.042;7.056;2022-10-13T00:59:18;62280.78;;;-146.17;100.00
4113;BME280;2070;51.042;7.056;2022-10-13T01:01:48;61740.97;;;-146.17;100.00
4113;BME280;2070;51.042;7.056;2022-10-13T01:04:13;61731.41;;;-146.17;100.00
4113;BME280;2070;51.042;7.056;2022-10-13T01:06:40;61756.31;;;-146.17;100.00
4113;BME280;2070;51.042;7.056;2022-10-13T01:09:05;61675.91;;;-146.17;100.00
4113;BME280;2070;51.042;7.056;2022-10-13T01:17:05;61082.63;;;-146.17;100.00
4113;BME280;2070;51.042;7.056;2022-10-13T01:22:43;59831.34;;;-146.17;100.00
4113;BME280;2070;51.042;7.056;2022-10-13T01:30:55;59949.94;;;-146.17;100.00
4113;BME280;2070;51.042;7.056;2022-10-13T01:33:39;59796.91;;;-146.17;100.00
4113;BME280;2070;51.042;7.056;2022-10-13T01:36:30;59666.81;;;-146.17;100.00
4113;BME280;2070;51.042;7.056;2022-10-13T01:39:07;59488.94;;;-146.17;100.00
4113;BME280;2070;51.042;7.056;2022-10-13T01:41:40;58790.84;;;-146.17;100.00
4113;BME280;2070;51.042;7.056;2022-10-13T01:44:32;58905.59;;;-146.17;100.00
4113;BME280;2070;51.042;7.056;2022-10-13T01:46:56;58582.41;;;-146.17;100.00
4113;BME280;2070;51.042;7.056;2022-10-13T01:49:34;58490.63;;;-146.17;100.00
4113;BME280;2070;51.042;7.056;2022-10-13T01:52:09;58521.22;;;-146.17;100.00
4113;BME280;2070;51.042;7.056;2022-10-13T01:54:37;58186.59;;;-146.17;100.00
4113;BME280;2070;51.042;7.056;2022-10-13T01:57:02;58481.06;;;-146.17;100.00
4113;BME280;2070;51.042;7.056;2022-10-13T01:59:30;57838.63;;;-146.17;100.00
4113;BME280;2070;51.042;7.056;2022-10-13T02:02:14;57764.06;;;-146.17;100.00
4113;BME280;2070;51.042;7.056;2022-10-13T02:05:02;57521.28;;;-146.17;100.00
4113;BME280;2070;51.042;7.056;2022-10-13T02:08:00;56796.84;;;-146.17;100.00
4113;BME280;2070;51.042;7.056;2022-10-13T02:10:32;57267.03;;;-146.17;100.00
4113;BME280;2070;51.042;7.056;2022-10-13T02:13:01;57756.41;;;-146.17;100.00
4113;BME280;2070;51.042;7.056;2022-10-13T02:15:32;57712.44;;;-146.17;100.00
4113;BME280;2070;51.042;7.056;2022-10-13T02:18:00;57706.72;;;-146.17;100.00
4113;BME280;2070;51.042;7.056;2022-10-13T02:20:28;57674.22;;;-146.17;100.00
4113;BME280;2070;51.042;7.056;2022-10-13T02:23:02;57081.63;;;-146.17;100.00
4113;BME280;2070;51.042;7.056;2022-10-13T02:25:29;56649.69;;;-146.17;100.00
4113;BME280;2070;51.042;7.056;2022-10-13T02:27:57;56676.44;;;-146.17;100.00
4113;BME280;2070;51.042;7.056;2022-10-13T02:30:25;56294.22;;;-146.17;100.00
4113;BME280;2070;51.042;7.056;2022-10-13T02:32:51;56632.47;;;-146.17;100.00
4113;BME280;2070;51.042;7.056;2022-10-13T02:35:17;56879.03;;;-146.17;100.00
4113;BME280;2070;51.042;7.056;2022-10-13T02:37:42;56903.88;;;-146.17;100.00
4113;BME280;2070;51.042;7.056;2022-10-13T02:40:08;56917.25;;;-146.17;100.00
4113;BME280;2070;51.042;7.056;2022-10-13T02:42:34;57251.75;;;-146.17;100.00
4113;BME280;2070;51.042;7.056;2022-10-13T02:44:59;57043.41;;;-146.17;100.00
4113;BME280;2070;51.042;7.056;2022-10-13T02:47:24;57039.56;;;-146.17;100.00
4113;BME280;2070;51.042;7.056;2022-10-13T02:49:50;57135.16;;;-146.17;100.00
4113;BME280;2070;51.042;7.056;2022-10-13T02:52:15;56733.78;;;-146.17;100.00
4113;BME280;2070;51.042;7.056;2022-10-13T02:54:40;56687.91;;;-146.17;100.00
4113;BME280;2070;51.042;7.056;2022-10-13T02:57:06;56449.00;;;-146.17;100.00
4113;BME280;2070;51.042;7.056;2022-10-13T02:59:31;56439.47;;;-146.17;100.00
4113;BME280;2070;51.042;7.056;2022-10-13T03:01:56;56630.56;;;-146.17;100.00
4113;BME280;2070;51.042;7.056;2022-10-13T03:04:22;56892.41;;;-146.17;100.00
4113;BME280;2070;51.042;7.056;2022-10-13T03:06:47;57020.47;;;-146.17;100.00
4113;BME280;2070;51.042;7.056;2022-10-13T03:09:12;56821.69;;;-146.17;100.00
4113;BME280;2070;51.042;7.056;2022-10-13T03:11:38;56288.50;;;-146.17;100.00
4113;BME280;2070;51.042;7.056;2022-10-13T03:14:03;57641.72;;;-146.17;100.00
4113;BME280;2070;51.042;7.056;2022-10-13T03:16:28;56821.69;;;-146.17;100.00
4113;BME280;2070;51.042;7.056;2022-10-13T03:18:54;56831.25;;;-146.17;100.00
4113;BME280;2070;51.042;7.056;2022-10-13T03:21:19;56638.22;;;-146.17;100.00
4113;BME280;2070;51.042;7.056;2022-10-13T03:23:45;56653.50;;;-146.17;100.00
4113;BME280;2070;51.042;7.056;2022-10-13T03:26:10;56724.22;;;-146.17;100.00
4113;BME280;2070;51.042;7.056;2022-10-13T03:28:35;56743.31;;;-146.17;100.00
4113;BME280;2070;51.042;7.056;2022-10-13T03:31:01;57024.28;;;-146.17;100.00
4113;BME280;2070;51.042;7.056;2022-10-13T03:33:27;57098.81;;;-146.17;100.00
4113;BME280;2070;51.042;7.056;2022-10-13T03:35:52;57190.56;;;-146.17;100.00
4113;BME280;2070;51.042;7.056;2022-10-13T03:38:18;57190.56;;;-146.17;100.00
4113;BME280;2070;51.042;7.056;2022-10-13T03:40:43;56861.81;;;-146.17;100.00
4113;BME280;2070;51.042;7.056;2022-10-13T03:43:08;56959.31;;;-146.17;100.00
4113;BME280;2070;51.042;7.056;2022-10-13T03:45:34;57117.94;;;-146.17;100.00
4113;BME280;2070;51.042;7.056;2022-10-13T03:47:59;56989.88;;;-146.17;100.00
4113;BME280;2070;51.042;7.056;2022-10-13T03:50:24;56428.00;;;-146.17;100.00
4113;BME280;2070;51.042;7.056;2022-10-13T03:52:50;56416.53;;;-146.17;100.00
4113;BME280;2070;51.042;7.056;2022-10-13T03:55:15;56032.44;;;-146.17;100.00
4113;BME280;2070;51.042;7.056;2022-10-13T03:57:41;55510.81;;;-146.17;100.00
4113;BME280;2070;51.042;7.056;2022-10-13T04:00:07;55189.88;;;-146.17;100.00
4113;BME280;2070;51.042;7.056;2022-10-13T04:02:35;55497.44;;;-146.17;100.00
4113;BME280;2070;51.042;7.056;2022-10-13T04:05:00;55449.69;;;-146.17;100.00
4113;BME280;2070;51.042;7.056;2022-10-13T04:07:25;54834.56;;;-146.17;100.00
4113;BME280;2070;51.042;7.056;2022-10-13T04:09:51;54800.19;;;-146.17;100.00
4113;BME280;2070;51.042;7.056;2022-10-13T04:12:16;54488.84;;;-146.17;100.00
4113;BME280;2070;51.042;7.056;2022-10-13T04:14:41;55109.63;;;-146.17;100.00
4113;BME280;2070;51.042;7.056;2022-10-13T04:17:07;55453.50;;;-146.17;100.00
4113;BME280;2070;51.042;7.056;2022-10-13T04:19:32;55529.94;;;-146.17;100.00
4113;BME280;2070;51.042;7.056;2022-10-13T04:21:58;55778.31;;;-146.17;100.00
4113;BME280;2070;51.042;7.056;2022-10-13T04:24:23;55946.44;;;-146.17;100.00
4113;BME280;2070;51.042;7.056;2022-10-13T04:26:48;56326.72;;;-146.17;100.00
4113;BME280;2070;51.042;7.056;2022-10-13T04:29:14;56642.03;;;-146.17;100.00
4113;BME280;2070;51.042;7.056;2022-10-13T04:31:39;56559.84;;;-146.17;100.00
4113;BME280;2070;51.042;7.056;2022-10-13T04:34:08;56995.63;;;-146.17;100.00
4113;BME280;2070;51.042;7.056;2022-10-13T04:36:33;57146.63;;;-146.17;100.00
4113;BME280;2070;51.042;7.056;2022-10-13T04:38:58;57291.88;;;-146.17;100.00
4113;BME280;2070;51.042;7.056;2022-10-13T04:41:24;57484.94;;;-146.17;100.00
4113;BME280;2070;51.042;7.056;2022-10-13T04:43:51;57335.84;;;-146.17;100.00
4113;BME280;2070;51.042;7.056;2022-10-13T04:46:22;56779.63;;;-146.17;100.00
4113;BME280;2070;51.042;7.056;2022-10-13T04:48:49;56997.53;;;-146.17;100.00
4113;BME280;2070;51.042;7.056;2022-10-13T04:51:19;56966.94;;;-146.17;100.00
4113;BME280;2070;51.042;7.056;2022-10-13T04:53:45;57288.06;;;-146.17;100.00
4113;BME280;2070;51.042;7.056;2022-10-13T04:56:16;56932.53;;;-146.17;100.00
4113;BME280;2070;51.042;7.056;2022-10-13T04:58:43;57131.31;;;-146.17;100.00
4113;BME280;2070;51.042;7.056;2022-10-13T05:01:14;56728.03;;;-146.17;100.00
4113;BME280;2070;51.042;7.056;2022-10-13T05:03:40;56689.81;;;-146.17;100.00
4113;BME280;2070;51.042;7.056;2022-10-13T05:06:12;56152.81;;;-146.17;100.00
4113;BME280;2070;51.042;7.056;2022-10-13T05:08:38;55698.06;;;-146.17;100.00
4113;BME280;2070;51.042;7.056;2022-10-13T05:11:03;55663.66;;;-146.17;100.00
4113;BME280;2070;51.042;7.056;2022-10-13T05:13:29;55642.66;;;-146.17;100.00
4113;BME280;2070;51.042;7.056;2022-10-13T05:15:54;55464.97;;;-146.17;100.00
4113;BME280;2070;51.042;7.056;2022-10-13T05:18:20;54538.50;;;-146.17;100.00
4113;BME280;2070;51.042;7.056;2022-10-13T05:20:46;54017.13;;;-146.17;100.00
4113;BME280;2070;51.042;7.056;2022-10-13T05:23:12;53658.13;;;-146.17;100.00
4113;BME280;2070;51.042;7.056;2022-10-13T05:25:38;53742.16;;;-146.17;100.00
4113;BME280;2070;51.042;7.056;2022-10-13T05:28:04;53324.00;;;-146.17;100.00
4113;BME280;2070;51.042;7.056;2022-10-13T05:30:30;52957.44;;;-146.17;100.00
4113;BME280;2070;51.042;7.056;2022-10-13T05:32:55;52839.06;;;-146.17;100.00
4113;BME280;2070;51.042;7.056;2022-10-13T05:35:21;53073.88;;;-146.17;100.00
4113;BME280;2070;51.042;7.056;2022-10-13T05:37:46;52585.19;;;-146.17;100.00
4113;BME280;2070;51.042;7.056;2022-10-13T05:40:12;52623.34;;;-146.17;100.00
4113;BME280;2070;51.042;7.056;2022-10-13T05:42:37;53007.06;;;-146.17;100.00
4113;BME280;2070;51.042;7.056;2022-10-13T05:45:03;53285.81;;;-146.17;100.00
4113;BME280;2070;51.042;7.056;2022-10-13T05:47:28;52169.06;;;-146.17;100.00
4113;BME280;2070;51.042;7.056;2022-10-13T05:49:54;52875.34;;;-146.17;100.00
4113;BME280;2070;51.042;7.056;2022-10-13T05:52:21;52789.44;;;-146.17;100.00
4113;BME280;2070;51.042;7.056;2022-10-13T05:54:52;52512.66;;;-146.17;100.00
4113;BME280;2070;51.042;7.056;2022-10-13T05:57:30;52203.44;;;-146.17;100.00
4113;BME280;2070;51.042;7.056;2022-10-13T06:00:08;53352.63;;;-146.17;100.00
4113;BME280;2070;51.042;7.056;2022-10-13T06:02:39;54131.72;;;-146.17;100.00
4113;BME280;2070;51.042;7.056;2022-10-13T06:05:11;55046.59;;;-146.17;100.00
4113;BME280;2070;51.042;7.056;2022-10-13T06:07:37;55449.69;;;-146.17;100.00
4113;BME280;2070;51.042;7.056;2022-10-13T06:10:03;55965.56;;;-146.17;100.00
4113;BME280;2070;51.042;7.056;2022-10-13T06:12:29;56808.31;;;-146.17;100.00
4113;BME280;2070;51.042;7.056;2022-10-13T06:14:54;57351.16;;;-146.17;100.00
4113;BME280;2070;51.042;7.056;2022-10-13T06:17:19;58150.25;;;-146.17;100.00
4113;BME280;2070;51.042;7.056;2022-10-13T06:19:45;58142.63;;;-146.17;100.00
4113;BME280;2070;51.042;7.056;2022-10-13T06:22:10;58377.81;;;-146.17;100.00
4113;BME280;2070;51.042;7.056;2022-10-13T06:24:36;58572.84;;;-146.17;100.00
4113;BME280;2070;51.042;7.056;2022-10-13T06:27:01;59150.38;;;-146.17;100.00
4113;BME280;2070;51.042;7.056;2022-10-13T06:29:26;60108.72;;;-146.17;100.00
4113;BME280;2070;51.042;7.056;2022-10-13T06:31:52;60843.44;;;-146.17;100.00
4113;BME280;2070;51.042;7.056;2022-10-13T06:34:17;61496.00;;;-146.17;100.00
4113;BME280;2070;51.042;7.056;2022-10-13T06:36:42;62219.53;;;-146.17;100.00
4113;BME280;2070;51.042;7.056;2022-10-13T06:39:08;62014.69;;;-146.17;100.00
4113;BME280;2070;51.042;7.056;2022-10-13T06:41:34;61080.72;;;-146.17;100.00
4113;BME280;2070;51.042;7.056;2022-10-13T06:43:59;60567.91;;;-146.17;100.00
4113;BME280;2070;51.042;7.056;2022-10-13T06:46:25;59588.41;;;-146.17;100.00
4113;BME280;2070;51.042;7.056;2022-10-13T06:48:50;59739.50;;;-146.17;100.00
4113;BME280;2070;51.042;7.056;2022-10-13T06:51:16;59152.31;;;-146.17;100.00
4113;BME280;2070;51.042;7.056;2022-10-13T06:53:42;57376.00;;;-146.17;100.00
4113;BME280;2070;51.042;7.056;2022-10-13T06:56:07;57863.47;;;-146.17;100.00
4113;BME280;2070;51.042;7.056;2022-10-13T06:58:34;58991.66;;;-146.17;100.00
4113;BME280;2070;51.042;7.056;2022-10-13T07:01:00;60311.50;;;-146.17;100.00
4113;BME280;2070;51.042;7.056;2022-10-13T07:03:25;61733.34;;;-146.17;100.00
4113;BME280;2070;51.042;7.056;2022-10-13T07:05:51;61712.28;;;-146.17;100.00
4113;BME280;2070;51.042;7.056;2022-10-13T07:08:16;60975.47;;;-146.17;100.00
4113;BME280;2070;51.042;7.056;2022-10-13T07:10:42;59506.16;;;-146.17;100.00
4113;BME280;2070;51.042;7.056;2022-10-13T07:13:07;59360.78;;;-146.17;100.00
4113;BME280;2070;51.042;7.056;2022-10-13T07:15:33;59014.59;;;-146.17;100.00
4113;BME280;2070;51.042;7.056;2022-10-13T07:18:00;58844.41;;;-146.17;100.00
4113;BME280;2070;51.042;7.056;2022-10-13T07:20:26;57553.78;;;-146.17;100.00
4113;BME280;2070;51.042;7.056;2022-10-13T07:22:52;56944.00;;;-146.17;100.00
4113;BME280;2070;51.042;7.056;2022-10-13T07:25:18;56055.38;;;-146.17;100.00
4113;BME280;2070;51.042;7.056;2022-10-13T07:27:43;53786.06;;;-146.17;100.00
4113;BME280;2070;51.042;7.056;2022-10-13T07:30:09;52787.53;;;-146.17;100.00
4113;BME280;2070;51.042;7.056;2022-10-13T07:32:35;52655.81;;;-146.17;100.00
4113;BME280;2070;51.042;7.056;2022-10-13T07:35:01;51041.25;;;-146.17;100.00
4113;BME280;2070;51.042;7.056;2022-10-13T07:37:26;48485.53;;;-146.17;100.00
4113;BME280;2070;51.042;7.056;2022-10-13T07:39:52;47149.28;;;-146.17;100.00
4113;BME280;2070;51.042;7.056;2022-10-13T07:42:17;48735.28;;;-146.17;100.00
4113;BME280;2070;51.042;7.056;2022-10-13T07:44:43;47122.63;;;-146.17;100.00
4113;BME280;2070;51.042;7.056;2022-10-13T07:47:08;46619.53;;;-146.17;100.00
4113;BME280;2070;51.042;7.056;2022-10-13T07:49:34;45278.31;;;-146.17;100.00
4113;BME280;2070;51.042;7.056;2022-10-13T07:51:59;44293.72;;;-146.17;100.00
4113;BME280;2070;51.042;7.056;2022-10-13T07:54:25;43676.81;;;-146.17;100.00
4113;BME280;2070;51.042;7.056;2022-10-13T07:56:52;43393.16;;;-146.17;100.00
4113;BME280;2070;51.042;7.056;2022-10-13T07:59:17;44543.19;;;-146.17;100.00
4113;BME280;2070;51.042;7.056;2022-10-13T08:01:43;45314.50;;;-146.17;100.00
4113;BME280;2070;51.042;7.056;2022-10-13T08:04:08;46451.84;;;-146.17;100.00
4113;BME280;2070;51.042;7.056;2022-10-13T08:06:34;47116.91;;;-146.17;100.00
4113;BME280;2070;51.042;7.056;2022-10-13T08:08:59;47757.28;;;-146.17;100.00
4113;BME280;2070;51.042;7.056;2022-10-13T08:11:25;48720.03;;;-146.17;100.00
4113;BME280;2070;51.042;7.056;2022-10-13T08:13:51;49971.06;;;-146.17;100.00
4113;BME280;2070;51.042;7.056;2022-10-13T08:16:17;49576.25;;;-146.17;100.00
4113;BME280;2070;51.042;7.056;2022-10-13T08:18:43;49212.00;;;-146.17;100.00
4113;BME280;2070;51.042;7.056;2022-10-13T08:21:11;50054.97;;;-146.17;100.00
4113;BME280;2070;51.042;7.056;2022-10-13T08:23:37;51510.66;;;-146.17;100.00
4113;BME280;2070;51.042;7.056;2022-10-13T08:26:03;54721.88;;;-146.17;100.00
4113;BME280;2070;51.042;7.056;2022-10-13T08:28:28;54777.25;;;-146.17;100.00
4113;BME280;2070;51.042;7.056;2022-10-13T08:30:55;53079.63;;;-146.17;100.00
4113;BME280;2070;51.042;7.056;2022-10-13T08:33:24;53094.88;;;-146.17;100.00
4113;BME280;2070;51.042;7.056;2022-10-13T08:35:51;54464.03;;;-146.17;100.00
4113;BME280;2070;51.042;7.056;2022-10-13T08:38:16;55159.31;;;-146.17;100.00
4113;BME280;2070;51.042;7.056;2022-10-13T08:40:49;55755.38;;;-146.17;100.00
4113;BME280;2070;51.042;7.056;2022-10-13T08:43:20;55694.22;;;-146.17;100.00
4113;BME280;2070;51.042;7.056;2022-10-13T08:45:51;57968.63;;;-146.17;100.00
4113;BME280;2070;51.042;7.056;2022-10-13T08:48:20;59873.41;;;-146.17;100.00
4113;BME280;2070;51.042;7.056;2022-10-13T08:50:50;60830.03;;;-146.17;100.00
4113;BME280;2070;51.042;7.056;2022-10-13T08:53:32;62885.75;;;-146.17;100.00
4113;BME280;2070;51.042;7.056;2022-10-13T08:58:44;65594.19;;;-146.17;100.00
4113;BME280;2070;51.042;7.056;2022-10-13T09:01:22;66878.25;;;-146.17;100.00
4113;BME280;2070;51.042;7.056;2022-10-13T09:06:57;68676.78;;;-146.17;100.00
4113;BME280;2070;51.042;7.056;2022-10-13T09:09:25;72783.59;;;-146.17;100.00
4113;BME280;2070;51.042;7.056;2022-10-13T09:11:50;72537.81;;;-146.17;100.00
4113;BME280;2070;51.042;7.056;2022-10-13T09:14:24;76330.16;;;-146.17;100.00
4113;BME280;2070;51.042;7.056;2022-10-13T09:16:52;81133.28;;;-146.17;100.00
4113;BME280;2070;51.042;7.056;2022-10-13T09:21:50;96321.38;;;-146.17;100.00
4113;BME280;2070;51.042;7.056;2022-10-13T09:24:18;93356.84;;;-146.17;100.00
4113;BME280;2070;51.042;7.056;2022-10-13T09:26:45;96630.72;;;-146.17;100.00
4113;BME280;2070;51.042;7.056;2022-10-13T09:29:17;92561.06;;;-146.17;100.00
4113;BME280;2070;51.042;7.056;2022-10-13T09:31:43;90045.53;;;-146.17;100.00
4113;BME280;2070;51.042;7.056;2022-10-13T09:37:04;98121.81;;;-146.17;100.00
4113;BME280;2070;51.042;7.056;2022-10-13T09:39:31;73440.38;;;-146.17;100.00
4113;BME280;2070;51.042;7.056;2022-10-13T09:44:55;65053.84;;;-146.17;100.00
4113;BME280;2070;51.042;7.056;2022-10-13T09:47:21;66050.25;;;-146.17;100.00
4113;BME280;2070;51.042;7.056;2022-10-13T09:49:58;60129.75;;;-146.17;100.00
4113;BME280;2070;51.042;7.056;2022-10-13T09:52:24;62544.97;;;-146.17;100.00
4113;BME280;2070;51.042;7.056;2022-10-13T09:54:59;61702.72;;;-146.17;100.00
4113;BME280;2070;51.042;7.056;2022-10-13T09:57:36;68678.72;;;-146.17;100.00
4113;BME280;2070;51.042;7.056;2022-10-13T10:00:23;60194.81;;;-146.17;100.00
4113;BME280;2070;51.042;7.056;2022-10-13T10:03:01;76028.41;;;-146.17;100.00
4113;BME280;2070;51.042;7.056;2022-10-13T10:05:59;60051.31;;;-146.17;100.00
4113;BME280;2070;51.042;7.056;2022-10-13T10:11:08;66282.16;;;-146.17;100.00
4113;BME280;2070;51.042;7.056;2022-10-13T10:13:34;67330.69;;;-146.17;100.00
4113;BME280;2070;51.042;7.056;2022-10-13T10:16:08;72276.69;;;-146.17;100.00
4113;BME280;2070;51.042;7.056;2022-10-13T10:18:45;82301.91;;;-146.17;100.00
4113;BME280;2070;51.042;7.056;2022-10-13T10:23:57;59663.00;;;-146.17;100.00
4113;BME280;2070;51.042;7.056;2022-10-13T10:26:28;48483.63;;;-146.17;100.00
4113;BME280;2070;51.042;7.056;2022-10-13T10:29:21;52735.97;;;-146.17;100.00
4113;BME280;2070;51.042;7.056;2022-10-13T10:45:33;102103.13;;;-146.17;100.00
4113;BME280;2070;51.042;7.056;2022-10-13T10:48:07;109223.47;;;-146.17;100.00
4113;BME280;2070;51.042;7.056;2022-10-13T10:50:37;95263.97;;;-146.17;100.00
4113;BME280;2070;51.042;7.056;2022-10-13T10:53:37;92557.22;;;-146.17;100.00
4113;BME280;2070;51.042;7.056;2022-10-13T10:56:07;75891.94;;;-146.17;100.00
4113;BME280;2070;51.042;7.056;2022-10-13T10:58:51;70153.91;;;-146.17;100.00
4113;BME280;2070;51.042;7.056;2022-10-13T11:06:40;68030.50;;;-146.17;100.00
4113;BME280;2070;51.042;7.056;2022-10-13T11:09:06;61279.75;;;-146.17;100.00
4113;BME280;2070;51.042;7.056;2022-10-13T11:11:34;62839.81;;;-146.17;100.00
4113;BME280;2070;51.042;7.056;2022-10-13T11:19:04;85885.28;;;-146.17;100.00
4113;BME280;2070;51.042;7.056;2022-10-13T11:42:54;37934.06;;;-146.17;100.00
4113;BME280;2070;51.042;7.056;2022-10-13T11:45:36;32100.56;;;-146.17;100.00
4113;BME280;2070;51.042;7.056;2022-10-13T11:56:52;33157.50;;;-146.17;100.00
4113;BME280;2070;51.042;7.056;2022-10-13T11:59:43;35386.34;;;-146.17;100.00
4113;BME280;2070;51.042;7.056;2022-10-13T12:04:34;40310.63;;;-146.17;100.00
4113;BME280;2070;51.042;7.056;2022-10-13T12:07:06;43412.19;;;-146.17;100.00
4113;BME280;2070;51.042;7.056;2022-10-13T12:09:53;42254.97;;;-146.17;100.00
4113;BME280;2070;51.042;7.056;2022-10-13T12:12:20;49128.09;;;-146.17;100.00
4113;BME280;2070;51.042;7.056;2022-10-13T12:14:52;51541.19;;;-146.17;100.00
4113;BME280;2070;51.042;7.056;2022-10-13T12:19:53;60043.69;;;-146.17;100.00
4113;BME280;2070;51.042;7.056;2022-10-13T12:22:19;62979.59;;;-146.17;100.00
4113;BME280;2070;51.042;7.056;2022-10-13T12:25:03;66707.66;;;-146.17;100.00
4113;BME280;2070;51.042;7.056;2022-10-13T12:27:30;68728.59;;;-146.17;100.00
4113;BME280;2070;51.042;7.056;2022-10-13T12:30:00;71146.03;;;-146.17;100.00
4113;BME280;2070;51.042;7.056;2022-10-13T12:32:31;71748.75;;;-146.17;100.00
4113;BME280;2070;51.042;7.056;2022-10-13T12:35:22;72825.84;;;-146.17;100.00
4113;BME280;2070;51.042;7.056;2022-10-13T12:37:48;72966.03;;;-146.17;100.00
4113;BME280;2070;51.042;7.056;2022-10-13T12:40:15;74001.25;;;-146.17;100.00
4113;BME280;2070;51.042;7.056;2022-10-13T12:42:42;74277.88;;;-146.17;100.00
4113;BME280;2070;51.042;7.056;2022-10-13T12:45:16;74258.66;;;-146.17;100.00
4113;BME280;2070;51.042;7.056;2022-10-13T12:55:33;79349.38;;;-146.17;100.00
4113;BME280;2070;51.042;7.056;2022-10-13T12:57:59;77654.81;;;-146.17;100.00
4113;BME280;2070;51.042;7.056;2022-10-13T13:00:27;77981.75;;;-146.17;100.00
4113;BME280;2070;51.042;7.056;2022-10-13T13:02:58;77504.84;;;-146.17;100.00
4113;BME280;2070;51.042;7.056;2022-10-13T13:05:32;75257.75;;;-146.17;100.00
4113;BME280;2070;51.042;7.056;2022-10-13T13:07:59;71643.19;;;-146.17;100.00
4113;BME280;2070;51.042;7.056;2022-10-13T13:10:25;72320.88;;;-146.17;100.00
4113;BME280;2070;51.042;7.056;2022-10-13T13:12:51;74335.50;;;-146.17;100.00
4113;BME280;2070;51.042;7.056;2022-10-13T13:17:51;73446.16;;;-146.17;100.00
4113;BME280;2070;51.042;7.056;2022-10-13T13:20:32;73461.50;;;-146.17;100.00
4113;BME280;2070;51.042;7.056;2022-10-13T13:22:58;72783.59;;;-146.17;100.00
4113;BME280;2070;51.042;7.056;2022-10-13T13:25:23;72468.69;;;-146.17;100.00
4113;BME280;2070;51.042;7.056;2022-10-13T13:27:49;73680.47;;;-146.17;100.00
4113;BME280;2070;51.042;7.056;2022-10-13T13:30:17;74285.53;;;-146.17;100.00
4113;BME280;2070;51.042;7.056;2022-10-13T13:32:43;75964.97;;;-146.17;100.00
4113;BME280;2070;51.042;7.056;2022-10-13T13:35:09;74921.47;;;-146.17;100.00
4113;BME280;2070;51.042;7.056;2022-10-13T13:40:03;76620.44;;;-146.17;100.00
4113;BME280;2070;51.042;7.056;2022-10-13T13:42:29;76155.25;;;-146.17;100.00
4113;BME280;2070;51.042;7.056;2022-10-13T13:44:54;77762.50;;;-146.17;100.00
4113;BME280;2070;51.042;7.056;2022-10-13T13:47:25;76326.31;;;-146.17;100.00
4113;BME280;2070;51.042;7.056;2022-10-13T13:49:53;75522.94;;;-146.17;100.00
4113;BME280;2070;51.042;7.056;2022-10-13T13:52:19;75038.69;;;-146.17;100.00
4113;BME280;2070;51.042;7.056;2022-10-13T13:54:46;73736.16;;;-146.17;100.00
4113;BME280;2070;51.042;7.056;2022-10-13T13:57:12;73590.19;;;-146.17;100.00
4113;BME280;2070;51.042;7.056;2022-10-13T13:59:38;74537.22;;;-146.17;100.00
4113;BME280;2070;51.042;7.056;2022-10-13T14:02:05;74016.59;;;-146.17;100.00
4113;BME280;2070;51.042;7.056;2022-10-13T14:04:32;73546.03;;;-146.17;100.00
4113;BME280;2070;51.042;7.056;2022-10-13T14:06:58;72422.63;;;-146.17;100.00
4113;BME280;2070;51.042;7.056;2022-10-13T14:09:24;76247.53;;;-146.17;100.00
4113;BME280;2070;51.042;7.056;2022-10-13T14:11:49;82043.88;;;-146.17;100.00
4113;BME280;2070;51.042;7.056;2022-10-13T14:14:14;86480.94;;;-146.17;100.00
4113;BME280;2070;51.042;7.056;2022-10-13T14:16:40;90767.38;;;-146.17;100.00
4113;BME280;2070;51.042;7.056;2022-10-13T14:19:06;93642.75;;;-146.17;100.00
4113;BME280;2070;51.042;7.056;2022-10-13T14:21:32;94411.72;;;-146.17;100.00
4113;BME280;2070;51.042;7.056;2022-10-13T14:23:57;94475.50;;;-146.17;100.00
4113;BME280;2070;51.042;7.056;2022-10-13T14:26:23;94531.53;;;-146.17;100.00
4113;BME280;2070;51.042;7.056;2022-10-13T14:28:48;93457.31;;;-146.17;100.00
4113;BME280;2070;51.042;7.056;2022-10-13T14:31:13;91134.16;;;-146.17;100.00
4113;BME280;2070;51.042;7.056;2022-10-13T14:33:39;87734.31;;;-146.17;100.00
4113;BME280;2070;51.042;7.056;2022-10-13T14:36:05;85509.44;;;-146.17;100.00
4113;BME280;2070;51.042;7.056;2022-10-13T14:38:32;85682.91;;;-146.17;100.00
4113;BME280;2070;51.042;7.056;2022-10-13T14:41:04;85588.47;;;-146.17;100.00
4113;BME280;2070;51.042;7.056;2022-10-13T14:43:29;84468.81;;;-146.17;100.00
4113;BME280;2070;51.042;7.056;2022-10-13T14:45:57;83881.22;;;-146.17;100.00